sensor_id;sensor_type;location;lat;lon;timestamp;temperature;humidity
56256;DHT22;57229;51.432;-2.598;2023-03-08T00:01:54;3.60;99.90
56256;DHT22;57229;51.432;-2.598;2023-03-08T00:04:19;3.50;99.90
56256;DHT22;57229;51.432;-2.598;2023-03-08T00:06:45;3.60;99.90
56256;DHT22;57229;51.432;-2.598;2023-03-08T00:09:11;3.60;99.90
56256;DHT22;57229;51.432;-2.598;2023-03-08T00:11:36;3.60;99.90
56256;DHT22;57229;51.432;-2.598;2023-03-08T00:14:02;3.60;99.90
56256;DHT22;57229;51.432;-2.598;2023-03-08T00:16:28;3.60;99.90
56256;DHT22;57229;51.432;-2.598;2023-03-08T00:18:53;3.60;99.90
56256;DHT22;57229;51.432;-2.598;2023-03-08T00:21:19;3.60;99.90
56256;DHT22;57229;51.432;-2.598;2023-03-08T00:23:45;3.70;99.90
56256;DHT22;57229;51.432;-2.598;2023-03-08T00:26:11;3.70;99.90
56256;DHT22;57229;51.432;-2.598;2023-03-08T00:28:38;3.70;99.90
56256;DHT22;57229;51.432;-2.598;2023-03-08T00:31:06;3.70;99.90
56256;DHT22;57229;51.432;-2.598;2023-03-08T00:33:33;3.80;99.90
56256;DHT22;57229;51.432;-2.598;2023-03-08T00:36:00;3.80;99.90
56256;DHT22;57229;51.432;-2.598;2023-03-08T00:38:29;3.80;99.90
56256;DHT22;57229;51.432;-2.598;2023-03-08T00:40:55;3.80;99.90
56256;DHT22;57229;51.432;-2.598;2023-03-08T00:43:21;3.80;99.90
56256;DHT22;57229;51.432;-2.598;2023-03-08T00:45:46;3.80;99.90
56256;DHT22;57229;51.432;-2.598;2023-03-08T00:48:12;3.80;99.90
56256;DHT22;57229;51.432;-2.598;2023-03-08T00:50:38;3.80;99.90
56256;DHT22;57229;51.432;-2.598;2023-03-08T00:53:04;3.80;99.90
56256;DHT22;57229;51.432;-2.598;2023-03-08T00:55:30;3.80;99.90
56256;DHT22;57229;51.432;-2.598;2023-03-08T00:57:55;3.80;99.90
56256;DHT22;57229;51.432;-2.598;2023-03-08T01:00:21;3.80;99.90
56256;DHT22;57229;51.432;-2.598;2023-03-08T01:02:47;3.80;99.90
56256;DHT22;57229;51.432;-2.598;2023-03-08T01:05:12;3.80;99.90
56256;DHT22;57229;51.432;-2.598;2023-03-08T01:07:38;3.80;99.90
56256;DHT22;57229;51.432;-2.598;2023-03-08T01:10:05;3.80;99.90
56256;DHT22;57229;51.432;-2.598;2023-03-08T01:12:31;3.90;99.90
56256;DHT22;57229;51.432;-2.598;2023-03-08T01:14:58;3.90;99.90
56256;DHT22;57229;51.432;-2.598;2023-03-08T01:17:23;3.80;99.90
56256;DHT22;57229;51.432;-2.598;2023-03-08T01:19:49;3.80;99.90
56256;DHT22;57229;51.432;-2.598;2023-03-08T01:22:15;3.80;99.90
56256;DHT22;57229;51.432;-2.598;2023-03-08T01:24:46;3.80;99.90
56256;DHT22;57229;51.432;-2.598;2023-03-08T01:27:12;3.80;99.90
56256;DHT22;57229;51.432;-2.598;2023-03-08T01:29:39;3.80;99.90
56256;DHT22;57229;51.432;-2.598;2023-03-08T01:32:05;3.70;99.90
56256;DHT22;57229;51.432;-2.598;2023-03-08T01:34:30;3.70;99.90
56256;DHT22;57229;51.432;-2.598;2023-03-08T01:36:56;3.70;99.90
56256;DHT22;57229;51.432;-2.598;2023-03-08T01:39:22;3.70;99.90
56256;DHT22;57229;51.432;-2.598;2023-03-08T01:41:48;3.70;99.90
56256;DHT22;57229;51.432;-2.598;2023-03-08T01:44:16;3.70;99.90
56256;DHT22;57229;51.432;-2.598;2023-03-08T01:46:42;3.80;99.90
56256;DHT22;57229;51.432;-2.598;2023-03-08T01:52:06;3.80;99.90
56256;DHT22;57229;51.432;-2.598;2023-03-08T01:57:24;3.80;99.90
56256;DHT22;57229;51.432;-2.598;2023-03-08T01:59:54;3.80;99.90
56256;DHT22;57229;51.432;-2.598;2023-03-08T02:02:24;3.80;99.90
56256;DHT22;57229;51.432;-2.598;2023-03-08T02:04:52;3.80;99.90
56256;DHT22;57229;51.432;-2.598;2023-03-08T02:07:18;3.70;99.90
56256;DHT22;57229;51.432;-2.598;2023-03-08T02:09:44;3.70;99.90
56256;DHT22;57229;51.432;-2.598;2023-03-08T02:12:12;3.60;99.90
56256;DHT22;57229;51.432;-2.598;2023-03-08T02:14:40;3.50;99.90
56256;DHT22;57229;51.432;-2.598;2023-03-08T02:17:06;3.40;99.90
56256;DHT22;57229;51.432;-2.598;2023-03-08T02:22:25;3.20;99.90
56256;DHT22;57229;51.432;-2.598;2023-03-08T02:24:51;3.10;99.90
56256;DHT22;57229;51.432;-2.598;2023-03-08T02:27:23;3.10;99.90
56256;DHT22;57229;51.432;-2.598;2023-03-08T02:29:50;3.00;99.90
56256;DHT22;57229;51.432;-2.598;2023-03-08T02:32:17;3.00;99.90
56256;DHT22;57229;51.432;-2.598;2023-03-08T02:34:45;3.00;99.90
56256;DHT22;57229;51.432;-2.598;2023-03-08T02:37:11;2.80;99.90
56256;DHT22;57229;51.432;-2.598;2023-03-08T02:39:37;2.70;99.90
56256;DHT22;57229;51.432;-2.598;2023-03-08T02:42:03;2.60;99.90
56256;DHT22;57229;51.432;-2.598;2023-03-08T02:44:28;2.60;99.90
56256;DHT22;57229;51.432;-2.598;2023-03-08T02:46:54;2.40;99.90
56256;DHT22;57229;51.432;-2.598;2023-03-08T02:52:27;2.30;99.90
56256;DHT22;57229;51.432;-2.598;2023-03-08T02:54:53;2.30;99.90
56256;DHT22;57229;51.432;-2.598;2023-03-08T02:57:22;2.20;99.90
56256;DHT22;57229;51.432;-2.598;2023-03-08T02:59:48;2.20;99.90
56256;DHT22;57229;51.432;-2.598;2023-03-08T03:02:13;2.20;99.90
56256;DHT22;57229;51.432;-2.598;2023-03-08T03:04:42;2.10;99.90
56256;DHT22;57229;51.432;-2.598;2023-03-08T03:14:08;2.10;99.90
56256;DHT22;57229;51.432;-2.598;2023-03-08T03:16:33;2.10;99.90
56256;DHT22;57229;51.432;-2.598;2023-03-08T03:27:18;1.90;99.90
56256;DHT22;57229;51.432;-2.598;2023-03-08T03:29:28;1.80;99.90
56256;DHT22;57229;51.432;-2.598;2023-03-08T03:32:04;1.90;99.90
56256;DHT22;57229;51.432;-2.598;2023-03-08T03:41:31;1.80;99.90
56256;DHT22;57229;51.432;-2.598;2023-03-08T03:43:57;1.80;99.90
56256;DHT22;57229;51.432;-2.598;2023-03-08T03:46:45;1.80;99.90
56256;DHT22;57229;51.432;-2.598;2023-03-08T03:49:49;1.80;99.90
56256;DHT22;57229;51.432;-2.598;2023-03-08T03:52:34;1.80;99.90
56256;DHT22;57229;51.432;-2.598;2023-03-08T03:55:50;1.80;99.90
56256;DHT22;57229;51.432;-2.598;2023-03-08T04:02:30;1.70;99.90
56256;DHT22;57229;51.432;-2.598;2023-03-08T04:11:25;1.70;99.90
56256;DHT22;57229;51.432;-2.598;2023-03-08T04:27:01;1.60;99.90
56256;DHT22;57229;51.432;-2.598;2023-03-08T04:29:51;2.50;99.90
56256;DHT22;57229;51.432;-2.598;2023-03-08T04:39:05;1.70;99.90
56256;DHT22;57229;51.432;-2.598;2023-03-08T04:41:31;1.60;99.90
56256;DHT22;57229;51.432;-2.598;2023-03-08T04:43:57;1.70;99.90
56256;DHT22;57229;51.432;-2.598;2023-03-08T04:46:26;1.70;99.90
56256;DHT22;57229;51.432;-2.598;2023-03-08T04:48:55;1.60;99.90
56256;DHT22;57229;51.432;-2.598;2023-03-08T04:51:25;1.60;99.90
56256;DHT22;57229;51.432;-2.598;2023-03-08T04:53:54;1.60;99.90
56256;DHT22;57229;51.432;-2.598;2023-03-08T05:05:58;1.60;99.90
56256;DHT22;57229;51.432;-2.598;2023-03-08T05:08:24;2.30;99.90
56256;DHT22;57229;51.432;-2.598;2023-03-08T05:10:56;1.60;99.90
56256;DHT22;57229;51.432;-2.598;2023-03-08T05:13:26;1.60;99.90
56256;DHT22;57229;51.432;-2.598;2023-03-08T05:15:52;1.60;99.90
56256;DHT22;57229;51.432;-2.598;2023-03-08T05:18:18;1.60;99.90
56256;DHT22;57229;51.432;-2.598;2023-03-08T05:20:51;1.60;99.90
56256;DHT22;57229;51.432;-2.598;2023-03-08T05:23:17;1.70;99.90
56256;DHT22;57229;51.432;-2.598;2023-03-08T05:26:20;1.70;99.90
56256;DHT22;57229;51.432;-2.598;2023-03-08T05:28:49;1.70;99.90
56256;DHT22;57229;51.432;-2.598;2023-03-08T05:31:17;1.70;99.90
56256;DHT22;57229;51.432;-2.598;2023-03-08T05:33:45;1.70;99.90
56256;DHT22;57229;51.432;-2.598;2023-03-08T05:36:18;1.70;99.90
56256;DHT22;57229;51.432;-2.598;2023-03-08T05:39:13;1.70;99.90
56256;DHT22;57229;51.432;-2.598;2023-03-08T05:41:39;1.70;99.90
56256;DHT22;57229;51.432;-2.598;2023-03-08T05:44:05;1.70;99.90
56256;DHT22;57229;51.432;-2.598;2023-03-08T05:46:30;1.70;99.90
56256;DHT22;57229;51.432;-2.598;2023-03-08T05:48:56;1.80;99.90
56256;DHT22;57229;51.432;-2.598;2023-03-08T05:51:25;1.80;99.90
56256;DHT22;57229;51.432;-2.598;2023-03-08T05:54:13;1.80;99.90
56256;DHT22;57229;51.432;-2.598;2023-03-08T05:56:51;1.70;99.90
56256;DHT22;57229;51.432;-2.598;2023-03-08T05:59:38;1.80;99.90
56256;DHT22;57229;51.432;-2.598;2023-03-08T06:02:37;1.70;99.90
56256;DHT22;57229;51.432;-2.598;2023-03-08T06:08:23;1.70;99.90
56256;DHT22;57229;51.432;-2.598;2023-03-08T06:10:49;1.80;99.90
56256;DHT22;57229;51.432;-2.598;2023-03-08T06:13:14;1.80;99.90
56256;DHT22;57229;51.432;-2.598;2023-03-08T06:19:02;1.70;99.90
56256;DHT22;57229;51.432;-2.598;2023-03-08T06:21:28;2.50;99.90
56256;DHT22;57229;51.432;-2.598;2023-03-08T06:23:54;1.70;99.90
56256;DHT22;57229;51.432;-2.598;2023-03-08T06:26:20;1.70;99.90
56256;DHT22;57229;51.432;-2.598;2023-03-08T06:32:09;1.60;99.90
56256;DHT22;57229;51.432;-2.598;2023-03-08T06:34:40;1.60;99.90
56256;DHT22;57229;51.432;-2.598;2023-03-08T06:37:06;1.70;99.90
56256;DHT22;57229;51.432;-2.598;2023-03-08T06:39:32;1.70;99.90
56256;DHT22;57229;51.432;-2.598;2023-03-08T06:41:58;1.70;99.90
56256;DHT22;57229;51.432;-2.598;2023-03-08T06:44:27;1.70;99.90
56256;DHT22;57229;51.432;-2.598;2023-03-08T06:46:53;1.70;99.90
56256;DHT22;57229;51.432;-2.598;2023-03-08T06:49:19;1.70;99.90
56256;DHT22;57229;51.432;-2.598;2023-03-08T06:51:45;1.70;99.90
56256;DHT22;57229;51.432;-2.598;2023-03-08T06:54:11;1.70;99.90
56256;DHT22;57229;51.432;-2.598;2023-03-08T06:56:45;1.70;99.90
56256;DHT22;57229;51.432;-2.598;2023-03-08T06:59:12;1.70;99.90
56256;DHT22;57229;51.432;-2.598;2023-03-08T07:01:38;1.70;99.90
56256;DHT22;57229;51.432;-2.598;2023-03-08T07:04:03;1.70;99.90
56256;DHT22;57229;51.432;-2.598;2023-03-08T07:06:30;1.70;99.90
56256;DHT22;57229;51.432;-2.598;2023-03-08T07:08:56;1.70;99.90
56256;DHT22;57229;51.432;-2.598;2023-03-08T07:11:22;1.80;99.90
56256;DHT22;57229;51.432;-2.598;2023-03-08T07:13:48;1.80;99.90
56256;DHT22;57229;51.432;-2.598;2023-03-08T07:16:14;1.90;99.90
56256;DHT22;57229;51.432;-2.598;2023-03-08T07:18:40;1.90;99.90
56256;DHT22;57229;51.432;-2.598;2023-03-08T07:21:19;1.90;99.90
56256;DHT22;57229;51.432;-2.598;2023-03-08T07:24:12;2.00;99.90
56256;DHT22;57229;51.432;-2.598;2023-03-08T07:26:42;2.00;99.90
56256;DHT22;57229;51.432;-2.598;2023-03-08T07:29:08;2.10;99.90
56256;DHT22;57229;51.432;-2.598;2023-03-08T07:31:34;2.20;99.90
56256;DHT22;57229;51.432;-2.598;2023-03-08T07:34:05;2.10;99.90
56256;DHT22;57229;51.432;-2.598;2023-03-08T07:36:32;2.30;99.90
56256;DHT22;57229;51.432;-2.598;2023-03-08T07:45:48;2.10;99.90
56256;DHT22;57229;51.432;-2.598;2023-03-08T07:48:39;2.10;99.90
56256;DHT22;57229;51.432;-2.598;2023-03-08T07:51:18;1.70;99.90
56256;DHT22;57229;51.432;-2.598;2023-03-08T07:53:59;2.10;99.90
56256;DHT22;57229;51.432;-2.598;2023-03-08T07:56:25;2.10;99.90
56256;DHT22;57229;51.432;-2.598;2023-03-08T07:58:51;2.20;99.90
56256;DHT22;57229;51.432;-2.598;2023-03-08T08:04:43;2.20;99.90
56256;DHT22;57229;51.432;-2.598;2023-03-08T08:07:19;2.20;99.90
56256;DHT22;57229;51.432;-2.598;2023-03-08T08:09:54;2.20;99.90
56256;DHT22;57229;51.432;-2.598;2023-03-08T08:12:33;2.20;99.90
56256;DHT22;57229;51.432;-2.598;2023-03-08T08:14:59;2.10;99.90
56256;DHT22;57229;51.432;-2.598;2023-03-08T08:17:24;2.20;99.90
56256;DHT22;57229;51.432;-2.598;2023-03-08T08:19:57;2.10;99.90
56256;DHT22;57229;51.432;-2.598;2023-03-08T08:22:24;2.10;99.90
56256;DHT22;57229;51.432;-2.598;2023-03-08T08:25:03;2.10;99.90
56256;DHT22;57229;51.432;-2.598;2023-03-08T08:27:42;2.10;99.90
56256;DHT22;57229;51.432;-2.598;2023-03-08T08:30:29;2.50;99.90
56256;DHT22;57229;51.432;-2.598;2023-03-08T08:33:05;2.30;99.90
56256;DHT22;57229;51.432;-2.598;2023-03-08T08:35:34;2.30;99.90
56256;DHT22;57229;51.432;-2.598;2023-03-08T08:38:03;2.30;99.90
56256;DHT22;57229;51.432;-2.598;2023-03-08T08:40:29;3.50;99.90
56256;DHT22;57229;51.432;-2.598;2023-03-08T08:42:55;2.40;99.90
56256;DHT22;57229;51.432;-2.598;2023-03-08T08:45:21;2.40;99.90
56256;DHT22;57229;51.432;-2.598;2023-03-08T08:48:17;2.50;99.90
56256;DHT22;57229;51.432;-2.598;2023-03-08T08:50:51;2.40;99.90
56256;DHT22;57229;51.432;-2.598;2023-03-08T08:56:27;2.50;99.90
56256;DHT22;57229;51.432;-2.598;2023-03-08T08:59:02;2.60;99.90
56256;DHT22;57229;51.432;-2.598;2023-03-08T09:01:33;2.70;99.90
56256;DHT22;57229;51.432;-2.598;2023-03-08T09:04:00;2.70;99.90
56256;DHT22;57229;51.432;-2.598;2023-03-08T09:16:42;3.10;99.90
56256;DHT22;57229;51.432;-2.598;2023-03-08T09:19:10;3.20;99.90
56256;DHT22;57229;51.432;-2.598;2023-03-08T09:25:31;3.30;99.90
56256;DHT22;57229;51.432;-2.598;2023-03-08T09:28:24;3.30;99.90
56256;DHT22;57229;51.432;-2.598;2023-03-08T09:34:23;3.40;99.90
56256;DHT22;57229;51.432;-2.598;2023-03-08T09:36:48;3.30;99.90
56256;DHT22;57229;51.432;-2.598;2023-03-08T09:39:23;3.30;99.90
56256;DHT22;57229;51.432;-2.598;2023-03-08T09:41:57;3.30;99.90
56256;DHT22;57229;51.432;-2.598;2023-03-08T09:49:38;3.50;99.90
56256;DHT22;57229;51.432;-2.598;2023-03-08T09:52:24;3.50;99.90
56256;DHT22;57229;51.432;-2.598;2023-03-08T09:54:52;3.50;99.90
56256;DHT22;57229;51.432;-2.598;2023-03-08T09:57:23;3.40;99.90
56256;DHT22;57229;51.432;-2.598;2023-03-08T10:00:00;3.50;99.90
56256;DHT22;57229;51.432;-2.598;2023-03-08T10:05:24;3.70;99.90
56256;DHT22;57229;51.432;-2.598;2023-03-08T10:07:55;3.80;99.90
56256;DHT22;57229;51.432;-2.598;2023-03-08T10:13:14;3.70;99.90
56256;DHT22;57229;51.432;-2.598;2023-03-08T10:15:45;3.70;99.90
56256;DHT22;57229;51.432;-2.598;2023-03-08T10:20:42;3.60;99.90
56256;DHT22;57229;51.432;-2.598;2023-03-08T10:23:21;3.50;99.90
56256;DHT22;57229;51.432;-2.598;2023-03-08T10:25:49;3.40;99.90
56256;DHT22;57229;51.432;-2.598;2023-03-08T10:28:21;3.40;99.90
56256;DHT22;57229;51.432;-2.598;2023-03-08T10:30:53;3.40;99.90
56256;DHT22;57229;51.432;-2.598;2023-03-08T10:33:21;3.40;99.90
56256;DHT22;57229;51.432;-2.598;2023-03-08T10:36:08;3.40;99.90
56256;DHT22;57229;51.432;-2.598;2023-03-08T10:38:37;3.30;99.90
56256;DHT22;57229;51.432;-2.598;2023-03-08T10:41:09;3.30;99.90
56256;DHT22;57229;51.432;-2.598;2023-03-08T10:43:49;3.30;99.90
56256;DHT22;57229;51.432;-2.598;2023-03-08T10:46:18;3.20;99.90
56256;DHT22;57229;51.432;-2.598;2023-03-08T10:48:44;3.20;99.90
56256;DHT22;57229;51.432;-2.598;2023-03-08T10:51:20;3.10;99.90
56256;DHT22;57229;51.432;-2.598;2023-03-08T10:53:57;3.20;99.90
56256;DHT22;57229;51.432;-2.598;2023-03-08T10:56:39;3.10;99.90
56256;DHT22;57229;51.432;-2.598;2023-03-08T10:59:21;3.00;99.90
56256;DHT22;57229;51.432;-2.598;2023-03-08T11:04:37;3.00;99.90
56256;DHT22;57229;51.432;-2.598;2023-03-08T11:07:29;3.00;99.90
56256;DHT22;57229;51.432;-2.598;2023-03-08T11:12:36;2.80;99.90
56256;DHT22;57229;51.432;-2.598;2023-03-08T11:15:15;2.70;99.90
56256;DHT22;57229;51.432;-2.598;2023-03-08T11:18:13;2.70;99.90
56256;DHT22;57229;51.432;-2.598;2023-03-08T11:20:54;2.70;99.90
56256;DHT22;57229;51.432;-2.598;2023-03-08T11:26:58;2.70;99.90
56256;DHT22;57229;51.432;-2.598;2023-03-08T11:38:21;3.20;99.90
56256;DHT22;57229;51.432;-2.598;2023-03-08T11:54:42;3.30;99.90
56256;DHT22;57229;51.432;-2.598;2023-03-08T11:57:13;3.40;99.90
56256;DHT22;57229;51.432;-2.598;2023-03-08T11:59:55;3.50;99.90
56256;DHT22;57229;51.432;-2.598;2023-03-08T12:02:29;3.70;99.90
56256;DHT22;57229;51.432;-2.598;2023-03-08T12:05:34;3.80;99.90
56256;DHT22;57229;51.432;-2.598;2023-03-08T12:11:40;3.90;99.90
56256;DHT22;57229;51.432;-2.598;2023-03-08T12:13:44;3.90;99.90
56256;DHT22;57229;51.432;-2.598;2023-03-08T12:16:25;3.90;99.90
56256;DHT22;57229;51.432;-2.598;2023-03-08T12:19:12;3.90;99.90
56256;DHT22;57229;51.432;-2.598;2023-03-08T12:22:24;4.00;99.90
56256;DHT22;57229;51.432;-2.598;2023-03-08T12:33:04;4.40;99.90
56256;DHT22;57229;51.432;-2.598;2023-03-08T12:35:48;4.40;99.90
56256;DHT22;57229;51.432;-2.598;2023-03-08T12:38:40;4.40;99.90
56256;DHT22;57229;51.432;-2.598;2023-03-08T12:41:30;4.40;99.90
56256;DHT22;57229;51.432;-2.598;2023-03-08T12:44:22;4.40;99.90
56256;DHT22;57229;51.432;-2.598;2023-03-08T12:46:54;4.40;99.90
56256;DHT22;57229;51.432;-2.598;2023-03-08T12:49:31;4.30;99.90
56256;DHT22;57229;51.432;-2.598;2023-03-08T12:52:05;4.30;99.90
56256;DHT22;57229;51.432;-2.598;2023-03-08T12:54:33;4.50;99.90
56256;DHT22;57229;51.432;-2.598;2023-03-08T12:57:01;4.60;99.90
56256;DHT22;57229;51.432;-2.598;2023-03-08T12:59:34;4.60;99.90
56256;DHT22;57229;51.432;-2.598;2023-03-08T13:02:20;4.60;99.90
56256;DHT22;57229;51.432;-2.598;2023-03-08T13:04:46;4.50;99.90
56256;DHT22;57229;51.432;-2.598;2023-03-08T13:10:32;4.40;99.90
56256;DHT22;57229;51.432;-2.598;2023-03-08T13:15:38;4.40;99.90
56256;DHT22;57229;51.432;-2.598;2023-03-08T13:28:32;3.90;99.90
56256;DHT22;57229;51.432;-2.598;2023-03-08T13:31:10;3.90;99.90
56256;DHT22;57229;51.432;-2.598;2023-03-08T13:33:41;3.90;99.90
56256;DHT22;57229;51.432;-2.598;2023-03-08T13:38:42;4.00;99.90
56256;DHT22;57229;51.432;-2.598;2023-03-08T13:41:09;4.10;99.90
56256;DHT22;57229;51.432;-2.598;2023-03-08T13:43:35;4.10;99.90
56256;DHT22;57229;51.432;-2.598;2023-03-08T13:46:03;4.10;99.90
56256;DHT22;57229;51.432;-2.598;2023-03-08T13:48:31;4.10;99.90
56256;DHT22;57229;51.432;-2.598;2023-03-08T13:50:59;4.00;99.90
56256;DHT22;57229;51.432;-2.598;2023-03-08T13:53:31;3.90;99.90
56256;DHT22;57229;51.432;-2.598;2023-03-08T13:55:59;3.80;99.90
56256;DHT22;57229;51.432;-2.598;2023-03-08T13:58:36;3.80;99.90
56256;DHT22;57229;51.432;-2.598;2023-03-08T14:01:14;3.70;99.90
56256;DHT22;57229;51.432;-2.598;2023-03-08T14:03:42;3.70;99.90
56256;DHT22;57229;51.432;-2.598;2023-03-08T14:06:28;3.70;99.90
56256;DHT22;57229;51.432;-2.598;2023-03-08T14:08:56;3.70;99.90
56256;DHT22;57229;51.432;-2.598;2023-03-08T14:11:41;3.60;99.90
56256;DHT22;57229;51.432;-2.598;2023-03-08T14:14:16;3.70;99.90
56256;DHT22;57229;51.432;-2.598;2023-03-08T14:16:44;3.60;99.90
56256;DHT22;57229;51.432;-2.598;2023-03-08T14:19:23;3.50;99.90
56256;DHT22;57229;51.432;-2.598;2023-03-08T14:22:37;3.60;99.90
56256;DHT22;57229;51.432;-2.598;2023-03-08T14:24:57;3.60;99.90
56256;DHT22;57229;51.432;-2.598;2023-03-08T14:27:41;3.60;99.90
56256;DHT22;57229;51.432;-2.598;2023-03-08T14:35:25;3.70;99.90
56256;DHT22;57229;51.432;-2.598;2023-03-08T14:37:51;3.60;99.90
56256;DHT22;57229;51.432;-2.598;2023-03-08T14:40:30;3.60;99.90
56256;DHT22;57229;51.432;-2.598;2023-03-08T14:42:59;3.60;99.90
56256;DHT22;57229;51.432;-2.598;2023-03-08T14:45:32;3.60;99.90
56256;DHT22;57229;51.432;-2.598;2023-03-08T14:48:02;3.60;99.90
56256;DHT22;57229;51.432;-2.598;2023-03-08T14:50:39;3.50;99.90
56256;DHT22;57229;51.432;-2.598;2023-03-08T14:53:21;3.60;99.90
56256;DHT22;57229;51.432;-2.598;2023-03-08T14:55:47;3.50;99.90
56256;DHT22;57229;51.432;-2.598;2023-03-08T14:58:13;3.50;99.90
56256;DHT22;57229;51.432;-2.598;2023-03-08T15:00:53;3.50;99.90
56256;DHT22;57229;51.432;-2.598;2023-03-08T15:03:19;3.50;99.90
56256;DHT22;57229;51.432;-2.598;2023-03-08T15:05:44;3.40;99.90
56256;DHT22;57229;51.432;-2.598;2023-03-08T15:08:13;3.50;99.90
56256;DHT22;57229;51.432;-2.598;2023-03-08T15:10:39;3.60;99.90
56256;DHT22;57229;51.432;-2.598;2023-03-08T15:13:16;3.70;99.90
56256;DHT22;57229;51.432;-2.598;2023-03-08T15:15:44;3.70;99.90
56256;DHT22;57229;51.432;-2.598;2023-03-08T15:18:10;4.70;99.90
56256;DHT22;57229;51.432;-2.598;2023-03-08T15:20:38;3.80;99.90
56256;DHT22;57229;51.432;-2.598;2023-03-08T15:23:27;3.90;99.90
56256;DHT22;57229;51.432;-2.598;2023-03-08T15:25:54;3.90;99.90
56256;DHT22;57229;51.432;-2.598;2023-03-08T15:28:21;3.90;99.90
56256;DHT22;57229;51.432;-2.598;2023-03-08T15:30:49;3.80;99.90
56256;DHT22;57229;51.432;-2.598;2023-03-08T15:33:17;3.70;99.90
56256;DHT22;57229;51.432;-2.598;2023-03-08T15:35:43;3.60;99.90
56256;DHT22;57229;51.432;-2.598;2023-03-08T15:38:13;3.60;99.90
56256;DHT22;57229;51.432;-2.598;2023-03-08T15:40:40;3.50;99.90
56256;DHT22;57229;51.432;-2.598;2023-03-08T15:43:06;3.50;99.90
56256;DHT22;57229;51.432;-2.598;2023-03-08T15:45:32;3.50;99.90
56256;DHT22;57229;51.432;-2.598;2023-03-08T15:48:06;3.50;99.90
56256;DHT22;57229;51.432;-2.598;2023-03-08T15:50:33;3.70;99.90
56256;DHT22;57229;51.432;-2.598;2023-03-08T15:52:59;3.70;99.90
56256;DHT22;57229;51.432;-2.598;2023-03-08T15:55:26;3.80;99.90
56256;DHT22;57229;51.432;-2.598;2023-03-08T15:57:52;3.80;99.90
56256;DHT22;57229;51.432;-2.598;2023-03-08T16:00:20;3.80;99.90
56256;DHT22;57229;51.432;-2.598;2023-03-08T16:02:46;3.90;99.90
56256;DHT22;57229;51.432;-2.598;2023-03-08T16:05:13;3.90;99.90
56256;DHT22;57229;51.432;-2.598;2023-03-08T16:07:39;3.90;99.90
56256;DHT22;57229;51.432;-2.598;2023-03-08T16:10:07;4.00;99.90
56256;DHT22;57229;51.432;-2.598;2023-03-08T16:12:33;3.90;99.90
56256;DHT22;57229;51.432;-2.598;2023-03-08T16:14:58;3.90;99.90
56256;DHT22;57229;51.432;-2.598;2023-03-08T16:17:25;3.90;99.90
56256;DHT22;57229;51.432;-2.598;2023-03-08T16:19:53;3.80;99.90
56256;DHT22;57229;51.432;-2.598;2023-03-08T16:22:19;3.80;99.90
56256;DHT22;57229;51.432;-2.598;2023-03-08T16:24:45;3.80;99.90
56256;DHT22;57229;51.432;-2.598;2023-03-08T16:27:10;3.60;99.90
56256;DHT22;57229;51.432;-2.598;2023-03-08T16:29:37;3.40;99.90
56256;DHT22;57229;51.432;-2.598;2023-03-08T16:32:03;3.30;99.90
56256;DHT22;57229;51.432;-2.598;2023-03-08T16:34:29;3.30;99.90
56256;DHT22;57229;51.432;-2.598;2023-03-08T16:36:56;3.20;99.90
56256;DHT22;57229;51.432;-2.598;2023-03-08T16:39:22;3.20;99.90
56256;DHT22;57229;51.432;-2.598;2023-03-08T16:41:48;3.20;99.90
56256;DHT22;57229;51.432;-2.598;2023-03-08T16:44:29;3.20;99.90
56256;DHT22;57229;51.432;-2.598;2023-03-08T16:46:55;3.10;99.90
56256;DHT22;57229;51.432;-2.598;2023-03-08T16:49:22;3.10;99.90
56256;DHT22;57229;51.432;-2.598;2023-03-08T16:51:53;3.30;99.90
56256;DHT22;57229;51.432;-2.598;2023-03-08T16:54:19;3.10;99.90
56256;DHT22;57229;51.432;-2.598;2023-03-08T16:56:45;3.00;99.90
56256;DHT22;57229;51.432;-2.598;2023-03-08T16:59:13;3.10;99.90
56256;DHT22;57229;51.432;-2.598;2023-03-08T17:01:39;3.10;99.90
56256;DHT22;57229;51.432;-2.598;2023-03-08T17:04:07;3.00;99.90
56256;DHT22;57229;51.432;-2.598;2023-03-08T17:06:33;3.00;99.90
56256;DHT22;57229;51.432;-2.598;2023-03-08T17:08:59;2.90;99.90
56256;DHT22;57229;51.432;-2.598;2023-03-08T17:11:28;2.90;99.90
56256;DHT22;57229;51.432;-2.598;2023-03-08T17:13:57;2.90;99.90
56256;DHT22;57229;51.432;-2.598;2023-03-08T17:16:26;2.90;99.90
56256;DHT22;57229;51.432;-2.598;2023-03-08T17:18:53;2.90;99.90
56256;DHT22;57229;51.432;-2.598;2023-03-08T17:21:20;2.90;99.90
56256;DHT22;57229;51.432;-2.598;2023-03-08T17:23:47;2.80;99.90
56256;DHT22;57229;51.432;-2.598;2023-03-08T17:26:16;2.80;99.90
56256;DHT22;57229;51.432;-2.598;2023-03-08T17:28:42;2.80;99.90
56256;DHT22;57229;51.432;-2.598;2023-03-08T17:31:14;2.80;99.90
56256;DHT22;57229;51.432;-2.598;2023-03-08T17:33:40;2.80;99.90
56256;DHT22;57229;51.432;-2.598;2023-03-08T17:36:08;2.70;99.90
56256;DHT22;57229;51.432;-2.598;2023-03-08T17:38:34;2.70;99.90
56256;DHT22;57229;51.432;-2.598;2023-03-08T17:41:06;2.70;99.90
56256;DHT22;57229;51.432;-2.598;2023-03-08T17:43:32;2.60;99.90
56256;DHT22;57229;51.432;-2.598;2023-03-08T17:46:17;2.70;99.90
56256;DHT22;57229;51.432;-2.598;2023-03-08T17:48:43;2.70;99.90
56256;DHT22;57229;51.432;-2.598;2023-03-08T17:51:15;2.60;99.90
56256;DHT22;57229;51.432;-2.598;2023-03-08T17:53:41;2.60;99.90
56256;DHT22;57229;51.432;-2.598;2023-03-08T17:56:15;2.60;99.90
56256;DHT22;57229;51.432;-2.598;2023-03-08T17:58:41;2.60;99.90
56256;DHT22;57229;51.432;-2.598;2023-03-08T18:01:13;2.60;99.90
56256;DHT22;57229;51.432;-2.598;2023-03-08T18:03:44;2.60;99.90
56256;DHT22;57229;51.432;-2.598;2023-03-08T18:06:40;2.70;99.90
56256;DHT22;57229;51.432;-2.598;2023-03-08T18:09:12;2.70;99.90
56256;DHT22;57229;51.432;-2.598;2023-03-08T18:11:38;2.60;99.90
56256;DHT22;57229;51.432;-2.598;2023-03-08T18:14:09;2.60;99.90
56256;DHT22;57229;51.432;-2.598;2023-03-08T18:16:35;2.60;99.90
56256;DHT22;57229;51.432;-2.598;2023-03-08T18:19:04;2.50;99.90
56256;DHT22;57229;51.432;-2.598;2023-03-08T18:21:37;2.60;99.90
56256;DHT22;57229;51.432;-2.598;2023-03-08T18:27:42;2.60;99.90
56256;DHT22;57229;51.432;-2.598;2023-03-08T18:30:11;2.60;99.90
56256;DHT22;57229;51.432;-2.598;2023-03-08T18:32:38;2.60;99.90
56256;DHT22;57229;51.432;-2.598;2023-03-08T18:35:05;2.60;99.90
56256;DHT22;57229;51.432;-2.598;2023-03-08T18:37:31;2.60;99.90
56256;DHT22;57229;51.432;-2.598;2023-03-08T18:39:57;2.60;99.90
56256;DHT22;57229;51.432;-2.598;2023-03-08T18:42:24;2.50;99.90
56256;DHT22;57229;51.432;-2.598;2023-03-08T18:44:50;2.50;99.90
56256;DHT22;57229;51.432;-2.598;2023-03-08T18:47:15;2.60;99.90
56256;DHT22;57229;51.432;-2.598;2023-03-08T18:49:41;2.60;99.90
56256;DHT22;57229;51.432;-2.598;2023-03-08T18:52:09;2.50;99.90
56256;DHT22;57229;51.432;-2.598;2023-03-08T18:54:35;2.50;99.90
56256;DHT22;57229;51.432;-2.598;2023-03-08T18:57:05;2.50;99.90
56256;DHT22;57229;51.432;-2.598;2023-03-08T18:59:31;2.50;99.90
56256;DHT22;57229;51.432;-2.598;2023-03-08T19:02:01;2.50;99.90
56256;DHT22;57229;51.432;-2.598;2023-03-08T19:07:35;2.50;99.90
56256;DHT22;57229;51.432;-2.598;2023-03-08T19:10:35;3.40;99.90
56256;DHT22;57229;51.432;-2.598;2023-03-08T19:13:03;1.20;99.90
56256;DHT22;57229;51.432;-2.598;2023-03-08T19:18:52;2.50;99.90